Elton, WI

5:53 PM CDT on September 02, 2015 (GMT -0500)
Sawyer Lake | | Change Station
CLOSE
Current Station
Personal Weather Station
Location: White Lake, WI
Elevation: 1424 ft
Nearby Weather Stations

Elev 1424 ft 45.25 °N, 88.76 °W | Updated 2 seconds ago

Mostly Cloudy
Mostly Cloudy
69.3 °F
Feels Like 69.3 °F
N
0.4
Wind Variable Wind from East
Gusts 2.5 mph

Today
High -- | Low -- °F
--% Chance of Precip.
Yesterday
High -- | Low -- °F
Precip. -- in
6:18 AM 7:31 PM
Waning Gibbous, 76% visible
Pressure 29.94 in
Visibility 10.0 miles
Clouds Mostly Cloudy 4100 ft
Dew Point 68 °F
Humidity 97%
Rainfall 0.87 in
Snow Depth Not available.
UV 0.0 out of 12
Pollen 10.00 out of 12
Air Quality Not available.
Flu Activity Not available.
METAR KAIG 022230Z AUTO 04004KT 10SM BKN041 21/19 A2994 RMK AO2 T02090192
Pressure 29.94 in
Visibility 10.0 miles
Clouds Mostly Cloudy 4100 ft
Dew Point 68 °F
Humidity 97%
Rainfall 0.87 in
Snow Depth Not available.
UV 0.0 out of 12
Pollen 10.00 out of 12
Air Quality Not available.
Flu Activity Not available.
METAR KAIG 022230Z AUTO 04004KT 10SM BKN041 21/19 A2994 RMK AO2 T02090192

10-Day Weather Forecast

×

Almanac

Astronomy

Sep. 02, 2015 Rise Set
Actual Time
Civil Twilight
Nautical Twilight
Astronomical Twilight
Moon
Length of Visible Light
Length of Day
Tomorrow will be .
, % of the Moon is Illuminated

Today's Extremes

State Highs State Lows

Community

WunderPhotos

Upload Photos

1,851,822 photos uploaded!

WunderBlogs® & News

Nearby

Air Quality

  Air Quality AQ Index Pollutant
Not available.

Snow Depth

Station Depth Elevation

Earthquake Activity

City Distance Mag. Time & Date
Minimum magnitude displayed is 2.5.

Coastal Water Temperatures

Place Temperature

Stations

Nearby Weather Stations

Station Location Temp. Windchill Dew Point Humidity Wind Precip. Elev Updated Type